createdAt,value
2019-02-21T00:01:13.102Z,101150.97
2019-02-21T00:04:18.673Z,101150.59
2019-02-21T00:07:22.178Z,101156.73
2019-02-21T00:10:30.796Z,101156.34
2019-02-21T00:13:34.299Z,101157.38
2019-02-21T00:16:37.794Z,101159.08
2019-02-21T00:19:41.240Z,101158.70
2019-02-21T00:22:44.718Z,101158.33
2019-02-21T00:25:48.324Z,101164.95
2019-02-21T00:28:51.815Z,101159.16
2019-02-21T00:31:55.311Z,101157.45
2019-02-21T00:34:58.753Z,101164.53
2019-02-21T00:38:02.211Z,101165.86
2019-02-21T00:41:05.821Z,101168.13
2019-02-21T00:44:09.424Z,101169.83
2019-02-21T00:47:14.078Z,101176.53
2019-02-21T00:50:17.555Z,101171.31
2019-02-21T00:53:22.282Z,101175.29
2019-02-21T00:56:25.765Z,101172.64
2019-02-21T00:59:30.304Z,101177.19
2019-02-21T01:02:33.893Z,101173.97
2019-02-21T01:05:37.496Z,101175.29
2019-02-21T01:08:42.018Z,101177.19
2019-02-21T01:11:46.565Z,101172.83
2019-02-21T01:14:51.085Z,101174.66
2019-02-21T01:17:54.577Z,101170.30
2019-02-21T01:20:58.079Z,101173.79
2019-02-21T01:24:01.597Z,101170.38
2019-02-21T01:27:06.099Z,101172.16
2019-02-21T01:30:09.622Z,101168.56
2019-02-21T01:33:13.106Z,101163.68
2019-02-21T01:36:17.649Z,101170.46
2019-02-21T01:39:22.166Z,101169.97
2019-02-21T01:42:26.690Z,101166.00
2019-02-21T01:45:31.260Z,101166.11
2019-02-21T01:48:34.817Z,101166.11
2019-02-21T01:51:38.258Z,101171.00
2019-02-21T01:54:43.741Z,101170.62
2019-02-21T01:57:47.252Z,101168.91
2019-02-21T02:00:50.721Z,101160.97
2019-02-21T02:03:54.257Z,101159.64
2019-02-21T02:06:57.692Z,101162.29
2019-02-21T02:10:01.269Z,101152.16
2019-02-21T02:13:04.866Z,101155.67
2019-02-21T02:16:09.490Z,101147.31
2019-02-21T02:19:14.033Z,101153.09
2019-02-21T02:22:17.515Z,101146.55
2019-02-21T02:25:21.018Z,101143.50
2019-02-21T02:28:24.451Z,101140.84
2019-02-21T02:31:28.883Z,101140.09
2019-02-21T02:34:32.333Z,101142.73
2019-02-21T02:37:35.824Z,101129.88
2019-02-21T02:40:40.389Z,101133.17
2019-02-21T02:43:43.864Z,101127.38
2019-02-21T02:46:48.387Z,101133.09
2019-02-21T02:49:51.902Z,101133.17
2019-02-21T02:52:55.394Z,101128.41
2019-02-21T02:55:58.889Z,101134.00
2019-02-21T02:59:02.392Z,101130.44
2019-02-21T03:02:05.906Z,101130.03
2019-02-21T03:05:10.415Z,101130.59
2019-02-21T03:08:14.016Z,101133.25
2019-02-21T03:11:17.525Z,101132.45
2019-02-21T03:14:20.960Z,101131.13
2019-02-21T03:17:24.439Z,101132.91
2019-02-21T03:20:27.930Z,101128.56
2019-02-21T03:23:31.465Z,101133.94
2019-02-21T03:26:34.918Z,101130.38
2019-02-21T03:29:38.539Z,101129.97
2019-02-21T03:32:42.125Z,101132.61
2019-02-21T03:35:47.676Z,101130.83
2019-02-21T03:38:51.175Z,101128.64
2019-02-21T03:41:54.689Z,101133.02
2019-02-21T03:44:59.234Z,101137.00
2019-02-21T03:48:03.760Z,101128.27
2019-02-21T03:51:07.235Z,101128.27
2019-02-21T03:54:10.738Z,101116.34
2019-02-21T03:57:15.350Z,101127.39
2019-02-21T04:00:18.966Z,101131.86
2019-02-21T04:03:22.459Z,101137.15
2019-02-21T04:06:27.008Z,101145.17
2019-02-21T04:09:30.492Z,101151.80
2019-02-21T04:12:33.979Z,101161.52
2019-02-21T04:15:37.608Z,101158.41
2019-02-21T04:18:41.183Z,101158.48
2019-02-21T04:21:44.733Z,101154.03
2019-02-21T04:24:50.235Z,101152.33
2019-02-21T04:27:54.786Z,101160.76
2019-02-21T04:30:58.344Z,101155.84
2019-02-21T04:34:01.966Z,101152.41
2019-02-21T04:37:06.501Z,101155.84
2019-02-21T04:40:13.541Z,101141.81
2019-02-21T04:43:17.187Z,101142.76
2019-02-21T04:46:20.700Z,101137.46
2019-02-21T04:49:26.238Z,101142.84
2019-02-21T04:52:29.747Z,101146.35
2019-02-21T04:55:34.277Z,101151.64
2019-02-21T04:58:38.792Z,101154.30
2019-02-21T05:01:42.298Z,101147.27
2019-02-21T05:04:46.816Z,101149.91
2019-02-21T05:07:50.309Z,101149.53
2019-02-21T05:10:53.827Z,101149.15
2019-02-21T05:13:57.310Z,101148.20
2019-02-21T05:17:00.842Z,101148.13
2019-02-21T05:20:05.368Z,101149.91
2019-02-21T05:23:08.865Z,101142.91
2019-02-21T05:26:16.443Z,101138.56
2019-02-21T05:29:19.929Z,101147.41
2019-02-21T05:32:42.510Z,101152.70
2019-02-21T05:36:16.831Z,101149.15
2019-02-21T05:39:36.194Z,101155.36
2019-02-21T05:42:51.358Z,101148.73
2019-02-21T05:46:19.740Z,101150.55
2019-02-21T05:49:32.766Z,101158.95
2019-02-21T05:52:45.438Z,101154.59
2019-02-21T05:56:00.148Z,101153.27
2019-02-21T05:59:13.166Z,101151.95
2019-02-21T06:02:53.180Z,101150.25
2019-02-21T06:06:05.181Z,101152.89
2019-02-21T06:09:19.688Z,101150.62
2019-02-21T06:12:33.713Z,101150.62
2019-02-21T06:15:47.996Z,101154.67
2019-02-21T06:19:16.551Z,101156.45
2019-02-21T06:22:33.404Z,101161.75
2019-02-21T06:25:59.396Z,101169.23
2019-02-21T06:29:16.636Z,101177.63
2019-02-21T06:32:20.176Z,101175.93
2019-02-21T06:35:23.643Z,101172.03
2019-02-21T06:38:27.179Z,101171.16
2019-02-21T06:41:30.654Z,101179.52
2019-02-21T06:44:37.864Z,101179.11
2019-02-21T06:47:40.512Z,101176.46
2019-02-21T06:50:44.014Z,101169.84
2019-02-21T06:53:47.507Z,101174.30
2019-02-21T06:56:51.033Z,101175.14
2019-02-21T06:59:54.505Z,101161.90
2019-02-21T07:02:58.019Z,101157.55
2019-02-21T07:06:02.556Z,101159.74
2019-02-21T07:09:06.130Z,101152.25
2019-02-21T07:12:10.658Z,101157.55
2019-02-21T07:15:15.088Z,101146.95
2019-02-21T07:18:19.815Z,101146.58
2019-02-21T07:21:25.363Z,101146.95
2019-02-21T07:24:29.056Z,101145.26
2019-02-21T07:27:32.577Z,101148.66
2019-02-21T07:30:36.009Z,101154.98
2019-02-21T07:33:39.593Z,101149.23
2019-02-21T07:36:43.087Z,101147.91
2019-02-21T07:39:46.609Z,101152.41
2019-02-21T07:42:50.089Z,101141.82
2019-02-21T07:45:53.613Z,101145.71
2019-02-21T07:48:57.094Z,101139.17
2019-02-21T07:52:00.590Z,101140.91
2019-02-21T07:55:04.087Z,101143.06
2019-02-21T07:58:08.616Z,101142.61
2019-02-21T08:01:12.128Z,101145.71
2019-02-21T08:04:15.559Z,101144.39
2019-02-21T08:07:19.103Z,101150.55
2019-02-21T08:10:33.249Z,101155.47
2019-02-21T08:13:27.971Z,101156.23
2019-02-21T08:16:33.509Z,101164.73
2019-02-21T08:19:38.353Z,101164.73
2019-02-21T08:22:42.963Z,101164.55
2019-02-21T08:25:46.519Z,101165.49
2019-02-21T08:28:51.011Z,101171.16
2019-02-21T08:31:54.488Z,101171.58
2019-02-21T08:35:00.029Z,101174.22
2019-02-21T08:38:03.544Z,101173.59
2019-02-21T08:41:10.737Z,101169.08
2019-02-21T08:44:25.404Z,101173.20
2019-02-21T08:47:31.047Z,101171.88
2019-02-21T08:50:34.547Z,101169.00
2019-02-21T08:53:38.035Z,101181.60
2019-02-21T08:56:41.552Z,101173.51
2019-02-21T08:59:47.191Z,101174.91
2019-02-21T09:02:50.826Z,101180.43
2019-02-21T09:05:54.292Z,101186.06
2019-02-21T09:08:57.782Z,101176.37
2019-02-21T09:12:01.284Z,101181.30
2019-02-21T09:15:08.584Z,101175.20
2019-02-21T09:18:12.190Z,101173.81
2019-02-21T09:21:15.690Z,101180.50
2019-02-21T09:24:37.432Z,101180.92
2019-02-21T09:27:26.581Z,101177.62
2019-02-21T09:30:30.079Z,101183.41
2019-02-21T09:33:33.701Z,101181.67
2019-02-21T09:36:37.346Z,101186.89
2019-02-21T09:39:41.003Z,101179.02
2019-02-21T09:42:44.557Z,101191.36
2019-02-21T09:45:48.185Z,101181.30
2019-02-21T09:48:51.717Z,101179.02
2019-02-21T09:51:55.215Z,101177.70
2019-02-21T09:54:58.723Z,101166.73
2019-02-21T09:58:02.332Z,101165.48
2019-02-21T10:01:05.930Z,101178.19
2019-02-21T10:04:09.428Z,101173.42
2019-02-21T10:07:12.924Z,101172.17
2019-02-21T10:10:17.939Z,101172.25
2019-02-21T10:13:21.666Z,101171.72
2019-02-21T10:16:26.288Z,101177.77
2019-02-21T10:19:29.821Z,101177.84
2019-02-21T10:22:34.318Z,101175.61
2019-02-21T10:25:38.849Z,101185.56
2019-02-21T10:28:44.960Z,101184.23
2019-02-21T10:31:47.713Z,101183.33
2019-02-21T10:34:53.029Z,101185.56
2019-02-21T10:37:56.540Z,101188.22
2019-02-21T10:41:00.082Z,101193.52
2019-02-21T10:44:03.755Z,101198.43
2019-02-21T10:47:07.335Z,101190.86
2019-02-21T10:50:15.188Z,101191.81
2019-02-21T10:53:18.781Z,101188.63
2019-02-21T10:56:23.241Z,101182.91
2019-02-21T10:59:26.773Z,101182.91
2019-02-21T11:02:30.321Z,101181.13
2019-02-21T11:05:34.019Z,101186.36
2019-02-21T11:08:37.483Z,101191.88
2019-02-21T11:11:40.990Z,101190.55
2019-02-21T11:14:47.473Z,101185.25
2019-02-21T11:17:49.830Z,101184.27
2019-02-21T11:20:54.350Z,101172.64
2019-02-21T11:23:57.851Z,101166.20
2019-02-21T11:27:01.368Z,101158.69
2019-02-21T11:30:06.048Z,101159.59
2019-02-21T11:33:09.535Z,101144.11
2019-02-21T11:36:14.110Z,101135.74
2019-02-21T11:39:17.627Z,101136.12
2019-02-21T11:42:21.127Z,101132.14
2019-02-21T11:45:24.667Z,101126.84
2019-02-21T11:48:34.056Z,101127.68
2019-02-21T11:51:38.155Z,101114.92
2019-02-21T11:54:42.119Z,101110.95
2019-02-21T11:57:45.722Z,101108.68
2019-02-21T12:00:51.338Z,101118.33
2019-02-21T12:03:56.070Z,101113.44
2019-02-21T12:06:59.739Z,101114.36
2019-02-21T12:10:03.695Z,101117.34
2019-02-21T12:13:07.287Z,101114.20
2019-02-21T12:16:10.786Z,101111.55
2019-02-21T12:19:15.303Z,101102.84
2019-02-21T12:22:18.855Z,101105.88
2019-02-21T12:25:22.353Z,101103.59
2019-02-21T12:28:25.815Z,101093.95
2019-02-21T12:31:29.415Z,101096.59
2019-02-21T12:34:33.029Z,101086.00
2019-02-21T12:37:36.506Z,101085.55
2019-02-21T12:40:40.040Z,101080.70
2019-02-21T12:43:44.646Z,101077.59
2019-02-21T12:46:48.043Z,101068.32
2019-02-21T12:49:51.547Z,101058.97
2019-02-21T12:52:55.036Z,101062.94
2019-02-21T12:55:58.569Z,101057.64
2019-02-21T12:59:02.053Z,101062.94
2019-02-21T13:02:05.639Z,101058.88
2019-02-21T13:05:10.280Z,101060.34
2019-02-21T13:08:14.822Z,101057.12
2019-02-21T13:11:18.355Z,101053.52
2019-02-21T13:14:22.835Z,101055.17
2019-02-21T13:17:26.427Z,101057.12
2019-02-21T13:20:30.036Z,101060.55
2019-02-21T13:23:33.583Z,101059.23
2019-02-21T13:26:37.052Z,101060.14
2019-02-21T13:29:40.551Z,101058.81
2019-02-21T13:32:44.055Z,101057.12
2019-02-21T13:35:52.754Z,101062.04
2019-02-21T13:38:52.905Z,101057.61
2019-02-21T13:41:56.479Z,101047.09
2019-02-21T13:45:00.381Z,101049.17
2019-02-21T13:48:05.023Z,101043.87
2019-02-21T13:51:08.535Z,101042.08
2019-02-21T13:54:12.041Z,101033.64
2019-02-21T13:57:16.548Z,101042.67
2019-02-21T14:00:20.091Z,101041.84
2019-02-21T14:03:23.658Z,101037.37
2019-02-21T14:06:27.253Z,101043.16
2019-02-21T14:09:30.880Z,101042.75
2019-02-21T14:12:34.484Z,101040.02
2019-02-21T14:15:38.136Z,101046.19
2019-02-21T14:18:41.688Z,101041.75
2019-02-21T14:21:45.174Z,101038.78
2019-02-21T14:24:49.809Z,101046.73
2019-02-21T14:27:53.518Z,101049.78
2019-02-21T14:30:57.120Z,101049.78
2019-02-21T14:34:00.658Z,101041.52
2019-02-21T14:37:10.311Z,101054.67
2019-02-21T14:40:13.849Z,101059.60
2019-02-21T14:43:17.584Z,101052.60
2019-02-21T14:46:22.310Z,101047.38
2019-02-21T14:49:25.930Z,101048.33
2019-02-21T14:52:29.398Z,101048.42
2019-02-21T14:55:32.920Z,101054.63
2019-02-21T14:58:37.422Z,101055.58
2019-02-21T15:01:40.942Z,101049.50
2019-02-21T15:04:44.540Z,101042.88
2019-02-21T15:07:49.188Z,101051.06
2019-02-21T15:10:52.948Z,101053.72
2019-02-21T15:13:56.582Z,101045.77
2019-02-21T15:17:00.216Z,101041.80
2019-02-21T15:20:03.890Z,101039.14
2019-02-21T15:23:07.517Z,101039.14
2019-02-21T15:26:11.098Z,101044.81
2019-02-21T15:29:14.687Z,101049.33
2019-02-21T15:32:18.205Z,101049.33
2019-02-21T15:35:21.708Z,101052.84
2019-02-21T15:38:25.229Z,101051.44
2019-02-21T15:41:28.717Z,101062.42
2019-02-21T15:44:33.206Z,101054.84
2019-02-21T15:47:37.794Z,101050.12
2019-02-21T15:50:41.270Z,101053.44
2019-02-21T15:53:45.790Z,101054.96
2019-02-21T15:56:49.387Z,101055.79
2019-02-21T15:59:53.010Z,101055.71
2019-02-21T16:02:57.502Z,101056.28
2019-02-21T16:06:01.043Z,101057.12
2019-02-21T16:09:15.912Z,101065.94
2019-02-21T16:12:14.988Z,101062.91
2019-02-21T16:15:19.550Z,101066.39
2019-02-21T16:18:23.241Z,101076.99
2019-02-21T16:21:26.692Z,101073.97
2019-02-21T16:24:30.213Z,101075.29
2019-02-21T16:27:33.788Z,101071.69
2019-02-21T16:30:37.414Z,101070.36
2019-02-21T16:33:40.966Z,101066.77
2019-02-21T16:36:44.607Z,101069.42
2019-02-21T16:39:48.110Z,101079.10
2019-02-21T16:42:51.617Z,101077.37
2019-02-21T16:45:55.144Z,101078.31
2019-02-21T16:48:58.610Z,101072.06
2019-02-21T16:52:02.547Z,101081.91
2019-02-21T16:55:08.844Z,101078.56
2019-02-21T16:58:12.423Z,101081.13
2019-02-21T17:01:15.982Z,101081.20
2019-02-21T17:04:19.427Z,101075.08
2019-02-21T17:07:22.942Z,101085.67
2019-02-21T17:10:26.450Z,101082.62
2019-02-21T17:13:30.002Z,101085.84
2019-02-21T17:16:33.615Z,101085.92
2019-02-21T17:19:37.124Z,101087.70
2019-02-21T17:22:40.617Z,101093.33
2019-02-21T17:25:44.119Z,101092.92
2019-02-21T17:28:48.634Z,101098.52
2019-02-21T17:31:52.143Z,101103.81
2019-02-21T17:34:55.660Z,101107.17
2019-02-21T17:38:00.166Z,101099.59
2019-02-21T17:41:03.690Z,101099.89
2019-02-21T17:44:07.159Z,101098.41
2019-02-21T17:47:10.763Z,101099.35
2019-02-21T17:50:15.718Z,101106.59
2019-02-21T17:53:20.378Z,101100.89
2019-02-21T17:56:23.947Z,101103.83
2019-02-21T17:59:28.557Z,101098.08
2019-02-21T18:02:32.057Z,101111.55
2019-02-21T18:05:36.575Z,101105.87
2019-02-21T18:08:40.136Z,101111.55
2019-02-21T18:11:43.634Z,101110.63
2019-02-21T18:14:47.075Z,101095.27
2019-02-21T18:17:51.622Z,101107.97
2019-02-21T18:20:55.136Z,101108.35
2019-02-21T18:24:00.763Z,101101.35
2019-02-21T18:27:04.381Z,101107.78
2019-02-21T18:30:10.317Z,101100.31
2019-02-21T18:33:13.899Z,101096.80
2019-02-21T18:36:17.334Z,101099.45
2019-02-21T18:39:20.940Z,101096.80
2019-02-21T18:42:24.623Z,101105.53
2019-02-21T18:45:28.242Z,101105.53
2019-02-21T18:48:31.725Z,101110.84
2019-02-21T18:51:35.237Z,101117.92
2019-02-21T18:54:38.739Z,101108.27
2019-02-21T18:57:42.246Z,101114.81
2019-02-21T19:00:45.843Z,101118.37
2019-02-21T19:03:49.454Z,101110.84
2019-02-21T19:06:55.014Z,101103.80
2019-02-21T19:09:58.560Z,101107.23
2019-02-21T19:13:03.403Z,101100.07
2019-02-21T19:16:07.045Z,101106.86
2019-02-21T19:19:10.663Z,101103.27
2019-02-21T19:22:14.214Z,101100.23
2019-02-21T19:25:18.126Z,101101.39
2019-02-21T19:28:22.032Z,101088.69
2019-02-21T19:31:25.674Z,101099.66
2019-02-21T19:34:30.356Z,101091.33
2019-02-21T19:37:33.901Z,101094.36
2019-02-21T19:40:37.692Z,101090.80
2019-02-21T19:43:41.345Z,101084.91
2019-02-21T19:46:44.925Z,101079.16
2019-02-21T19:49:48.529Z,101082.27
2019-02-21T19:52:53.044Z,101082.09
2019-02-21T19:55:56.539Z,101075.93
2019-02-21T19:59:00.167Z,101080.40
2019-02-21T20:02:04.164Z,101082.09
2019-02-21T20:05:08.047Z,101082.27
2019-02-21T20:08:20.938Z,101079.70
2019-02-21T20:11:18.255Z,101084.33
2019-02-21T20:14:21.944Z,101087.52
2019-02-21T20:17:25.677Z,101087.52
2019-02-21T20:20:29.415Z,101094.31
2019-02-21T20:23:33.229Z,101092.61
2019-02-21T20:26:36.827Z,101084.66
2019-02-21T20:29:40.303Z,101084.66
2019-02-21T20:32:44.843Z,101081.64
2019-02-21T20:35:48.310Z,101076.41
2019-02-21T20:38:51.816Z,101076.88
2019-02-21T20:41:55.413Z,101077.82
2019-02-21T20:44:59.086Z,101076.12
2019-02-21T20:48:02.519Z,101081.23
2019-02-21T20:51:06.019Z,101080.48
2019-02-21T20:54:09.563Z,101073.47
2019-02-21T20:57:13.024Z,101079.69
2019-02-21T21:00:17.144Z,101079.69
2019-02-21T21:03:24.012Z,101081.59
2019-02-21T21:06:28.030Z,101079.77
2019-02-21T21:09:32.596Z,101084.41
2019-02-21T21:12:36.059Z,101085.31
2019-02-21T21:15:39.560Z,101084.48
2019-02-21T21:18:43.053Z,101080.02
2019-02-21T21:21:46.591Z,101078.89
2019-02-21T21:24:50.069Z,101082.45
2019-02-21T21:27:53.592Z,101083.03
2019-02-21T21:30:57.120Z,101081.29
2019-02-21T21:34:00.777Z,101086.05
2019-02-21T21:37:04.256Z,101086.21
2019-02-21T21:40:11.421Z,101085.46
2019-02-21T21:43:14.987Z,101084.67
2019-02-21T21:46:21.777Z,101094.73
2019-02-21T21:49:25.264Z,101094.89
2019-02-21T21:52:28.720Z,101093.57
2019-02-21T21:55:32.248Z,101090.43
2019-02-21T21:58:35.757Z,101087.86
2019-02-21T22:01:39.235Z,101082.19
2019-02-21T22:04:43.786Z,101079.16
2019-02-21T22:07:49.307Z,101081.48
2019-02-21T22:10:52.592Z,101080.99
2019-02-21T22:13:56.218Z,101075.31
2019-02-21T22:16:59.799Z,101084.20
2019-02-21T22:20:03.318Z,101073.61
2019-02-21T22:23:06.818Z,101078.91
2019-02-21T22:26:10.312Z,101080.39
2019-02-21T22:29:13.846Z,101080.77
2019-02-21T22:32:17.312Z,101076.80
2019-02-21T22:35:20.934Z,101072.83
2019-02-21T22:38:24.533Z,101088.80
2019-02-21T22:41:28.232Z,101079.61
2019-02-21T22:44:31.769Z,101087.55
2019-02-21T22:47:36.278Z,101085.85
2019-02-21T22:50:39.773Z,101086.80
2019-02-21T22:53:44.289Z,101088.13
2019-02-21T22:56:47.834Z,101089.91
2019-02-21T22:59:51.294Z,101089.04
2019-02-21T23:02:54.791Z,101093.88
2019-02-21T23:06:23.783Z,101091.77
2019-02-21T23:09:28.304Z,101089.77
2019-02-21T23:12:34.560Z,101097.63
2019-02-21T23:15:38.081Z,101095.82
2019-02-21T23:18:41.598Z,101094.12
2019-02-21T23:21:45.088Z,101091.09
2019-02-21T23:24:48.591Z,101093.36
2019-02-21T23:27:52.084Z,101089.84
2019-02-21T23:30:55.746Z,101092.95
2019-02-21T23:34:00.708Z,101090.30
2019-02-21T23:37:04.316Z,101093.90
2019-02-21T23:40:07.754Z,101093.11
2019-02-21T23:43:11.269Z,101090.38
2019-02-21T23:46:14.964Z,101086.57
2019-02-21T23:49:19.950Z,101087.44
2019-02-21T23:52:23.535Z,101087.44
2019-02-21T23:55:27.218Z,101080.44
2019-02-21T23:58:30.691Z,101075.14
